Time;durP1;ratioP1;P1;durP2;ratioP2;P2;SDS_P1;SDS_P2;PMS_P1;PMS_P2;Temp;Humidity;BMP_temperature;BMP_pressure;BME280_temperature;BME280_humidity;BME280_pressure;Samples;Min_cycle;Max_cycle;Signal;HPM_P1;HPM_P2
2022/06/26 00:00:44;;;;;;;;;;;;;;;17.34;64.48;98689.41;4843075;29;19983;-78
2022/06/26 00:03:09;;;;;;;;;;;;;;;17.34;64.47;98688.53;4826766;29;19935;-78
2022/06/26 00:05:35;;;;;;;;;;;;;;;17.36;64.82;98687.34;4841728;29;19928;-77
2022/06/26 00:08:01;;;;;;;;;;;;;;;17.35;65.04;98696.47;4826584;29;20010;-78
2022/06/26 00:10:27;;;;;;;;;;;;;;;17.32;65.18;98691.44;4841498;29;20018;-77
2022/06/26 00:12:53;;;;;;;;;;;;;;;17.32;65.01;98690.59;4841387;29;19967;-76
2022/06/26 00:15:18;;;;;;;;;;;;;;;17.29;65.16;98696.38;4841719;29;19932;-78
2022/06/26 00:17:44;;;;;;;;;;;;;;;17.33;64.90;98693.09;4842406;29;19939;-78
2022/06/26 00:20:10;;;;;;;;;;;;;;;17.33;64.93;98697.69;4842613;29;19985;-77
2022/06/26 00:22:36;;;;;;;;;;;;;;;17.36;65.00;98700.03;4841525;29;19929;-77
2022/06/26 00:25:02;;;;;;;;;;;;;;;17.29;65.07;98701.75;4841505;29;19935;-77
2022/06/26 00:27:29;;;;;;;;;;;;;;;17.31;64.79;98710.53;4856815;29;19935;-77
2022/06/26 00:29:55;;;;;;;;;;;;;;;17.20;65.36;98709.09;4826517;29;19928;-78
2022/06/26 00:32:21;;;;;;;;;;;;;;;17.16;65.24;98714.03;4841627;29;19932;-78
2022/06/26 00:34:46;;;;;;;;;;;;;;;17.18;65.07;98722.78;4842673;29;19932;-77
2022/06/26 00:37:12;;;;;;;;;;;;;;;17.11;65.14;98721.84;4842759;29;19928;-77
2022/06/26 00:39:38;;;;;;;;;;;;;;;17.12;65.26;98728.06;4826554;29;19953;-78
2022/06/26 00:42:04;;;;;;;;;;;;;;;17.10;65.29;98725.53;4841547;29;20295;-78
2022/06/26 00:44:29;;;;;;;;;;;;;;;17.07;65.27;98736.69;4826250;29;20027;-78
2022/06/26 00:46:56;;;;;;;;;;;;;;;17.08;65.03;98735.69;4841359;29;20380;-77
2022/06/26 00:49:21;;;;;;;;;;;;;;;17.16;65.15;98741.03;4842471;29;19928;-78
2022/06/26 00:51:49;;;;;;;;;;;;;;;17.27;64.59;98738.94;4842927;29;19928;-78
2022/06/26 00:54:16;;;;;;;;;;;;;;;17.37;64.37;98736.81;4841190;29;19929;-78
2022/06/26 00:56:42;;;;;;;;;;;;;;;17.47;63.85;98743.66;4841842;29;19928;-77
2022/06/26 00:59:07;;;;;;;;;;;;;;;17.57;63.58;98735.31;4841426;29;20262;-78
2022/06/26 01:01:34;;;;;;;;;;;;;;;17.57;63.13;98738.00;4826138;29;19939;-78
2022/06/26 01:04:00;;;;;;;;;;;;;;;17.60;62.96;98742.19;4826000;29;19928;-78
2022/06/26 01:06:27;;;;;;;;;;;;;;;17.71;62.76;98747.16;4826040;29;19954;-78
2022/06/26 01:08:52;;;;;;;;;;;;;;;17.82;62.76;98745.91;4826366;29;20297;-78
2022/06/26 01:11:18;;;;;;;;;;;;;;;17.92;62.38;98752.75;4841500;29;19934;-77
2022/06/26 01:13:45;;;;;;;;;;;;;;;17.94;62.16;98758.81;4841179;29;20027;-78
2022/06/26 01:16:12;;;;;;;;;;;;;;;18.04;62.00;98755.00;4841148;29;19928;-78
2022/06/26 01:18:38;;;;;;;;;;;;;;;18.08;62.06;98750.91;4841763;29;19985;-78
2022/06/26 01:21:04;;;;;;;;;;;;;;;18.09;61.46;98757.97;4841122;29;19987;-78
2022/06/26 01:23:29;;;;;;;;;;;;;;;18.22;61.64;98751.94;4841091;29;19987;-79
2022/06/26 01:25:55;;;;;;;;;;;;;;;18.35;61.29;98763.75;4841002;29;20449;-78
2022/06/26 01:28:21;;;;;;;;;;;;;;;18.44;60.71;98759.97;4841609;29;19933;-78
2022/06/26 01:30:47;;;;;;;;;;;;;;;18.35;60.93;98752.09;4844590;29;19928;-78
2022/06/26 01:33:12;;;;;;;;;;;;;;;18.37;60.85;98753.59;4844519;29;19940;-78
2022/06/26 01:35:38;;;;;;;;;;;;;;;18.53;60.41;98749.84;4844560;29;19967;-77
2022/06/26 01:38:23;;;;;;;;;;;;;;;18.71;59.46;98751.38;4844667;29;19928;-77
2022/06/26 01:40:51;;;;;;;;;;;;;;;18.60;59.69;98744.53;4828885;29;19980;-78
2022/06/26 01:43:18;;;;;;;;;;;;;;;18.60;60.40;98766.19;4844162;29;19984;-79
2022/06/26 01:45:46;;;;;;;;;;;;;;;18.64;60.10;98768.31;4814673;29;19935;-78
2022/06/26 01:48:13;;;;;;;;;;;;;;;18.76;60.00;98771.44;4844385;29;19935;-77
2022/06/26 01:50:40;;;;;;;;;;;;;;;18.90;59.92;98770.56;4828831;29;19933;-78
2022/06/26 01:53:06;;;;;;;;;;;;;;;18.83;59.65;98766.94;4828741;29;19928;-76
2022/06/26 01:55:33;;;;;;;;;;;;;;;18.72;59.72;98763.88;4828609;29;20400;-78
2022/06/26 01:58:02;;;;;;;;;;;;;;;18.58;59.53;98763.69;4843960;29;20440;-78
2022/06/26 02:00:32;;;;;;;;;;;;;;;18.37;60.65;98766.31;4844019;29;20031;-78
2022/06/26 02:02:58;;;;;;;;;;;;;;;18.25;60.72;98762.38;4813619;29;20006;-77
2022/06/26 02:05:25;;;;;;;;;;;;;;;18.25;60.47;98767.81;4844012;29;19980;-78
2022/06/26 02:07:52;;;;;;;;;;;;;;;18.26;60.41;98764.06;4828564;29;20354;-77
2022/06/26 02:16:14;;;;;;;;;;;;;;;18.13;60.30;98770.97;4831002;29;19928;-77
2022/06/26 02:18:42;;;;;;;;;;;;;;;18.05;60.56;98776.44;4843656;29;20413;-77
2022/06/26 02:21:10;;;;;;;;;;;;;;;18.09;60.35;98771.50;4844719;29;19928;-78
2022/06/26 02:23:36;;;;;;;;;;;;;;;18.03;60.60;98783.91;4843524;29;19929;-77
2022/06/26 02:26:03;;;;;;;;;;;;;;;18.01;59.94;98785.94;4813052;29;20046;-78
2022/06/26 02:28:28;;;;;;;;;;;;;;;18.01;59.72;98788.66;4828280;29;20460;-78
2022/06/26 02:30:54;;;;;;;;;;;;;;;18.09;59.68;98780.47;4843284;29;19960;-76
2022/06/26 02:33:22;;;;;;;;;;;;;;;18.03;60.21;98792.03;4843273;29;19968;-77
2022/06/26 02:35:47;;;;;;;;;;;;;;;18.04;59.35;98782.88;4828269;29;19933;-77
2022/06/26 02:38:13;;;;;;;;;;;;;;;18.08;59.33;98786.88;4843329;29;20475;-80
2022/06/26 02:40:39;;;;;;;;;;;;;;;18.13;58.93;98787.19;4827906;29;20281;-78
2022/06/26 02:43:05;;;;;;;;;;;;;;;18.15;58.58;98790.53;4843310;29;19959;-77
2022/06/26 02:45:32;;;;;;;;;;;;;;;18.13;58.15;98798.00;4842776;29;19996;-78
2022/06/26 02:47:58;;;;;;;;;;;;;;;18.08;57.75;98799.56;4827907;29;20008;-78
2022/06/26 02:50:24;;;;;;;;;;;;;;;18.09;57.89;98796.72;4843560;29;20281;-79
2022/06/26 02:52:50;;;;;;;;;;;;;;;18.15;58.12;98795.94;4813179;29;19981;-78
2022/06/26 02:55:16;;;;;;;;;;;;;;;18.17;57.71;98793.91;4812224;29;19929;-78
2022/06/26 02:57:42;;;;;;;;;;;;;;;18.15;57.02;98798.66;4827600;29;19929;-78
2022/06/26 03:00:09;;;;;;;;;;;;;;;18.13;56.55;98800.72;4827768;29;19928;-78
2022/06/26 03:02:39;;;;;;;;;;;;;;;18.24;55.65;98801.28;4812404;29;20448;-76
2022/06/26 03:05:07;;;;;;;;;;;;;;;18.15;55.39;98812.19;4827565;29;19936;-77
2022/06/26 03:07:33;;;;;;;;;;;;;;;18.09;55.61;98804.81;4827702;29;19929;-78
2022/06/26 03:10:00;;;;;;;;;;;;;;;18.13;55.55;98803.44;4812320;29;19928;-78
2022/06/26 03:12:26;;;;;;;;;;;;;;;18.18;55.62;98808.28;4827586;29;19988;-78
2022/06/26 03:14:52;;;;;;;;;;;;;;;18.34;54.43;98805.38;4827470;29;19928;-78
2022/06/26 03:17:18;;;;;;;;;;;;;;;18.22;55.39;98803.34;4811831;29;20031;-78
2022/06/26 03:19:46;;;;;;;;;;;;;;;18.29;54.79;98810.53;4827120;29;19957;-78
2022/06/26 03:22:11;;;;;;;;;;;;;;;18.36;55.22;98816.88;4826621;29;19985;-78
2022/06/26 03:24:38;;;;;;;;;;;;;;;18.37;54.41;98805.03;4827730;29;19982;-78
2022/06/26 03:27:05;;;;;;;;;;;;;;;18.42;54.57;98812.56;4842101;29;20341;-79
2022/06/26 03:29:31;;;;;;;;;;;;;;;18.45;54.23;98814.91;4842175;29;20404;-78
2022/06/26 03:31:57;;;;;;;;;;;;;;;18.57;54.10;98826.13;4826913;29;19932;-78
2022/06/26 03:34:24;;;;;;;;;;;;;;;18.73;53.76;98822.41;4827567;29;20470;-79
2022/06/26 03:36:50;;;;;;;;;;;;;;;18.74;52.52;98822.22;4827105;29;19982;-79
2022/06/26 03:39:16;;;;;;;;;;;;;;;18.70;52.86;98831.72;4826654;29;19928;-79
2022/06/26 03:41:57;;;;;;;;;;;;;;;18.66;52.96;98847.50;4811847;29;19936;-77
2022/06/26 03:44:25;;;;;;;;;;;;;;;18.56;52.38;98833.41;4827320;29;19936;-78
2022/06/26 03:46:51;;;;;;;;;;;;;;;18.71;51.93;98838.00;4811599;29;20440;-76
2022/06/26 03:49:17;;;;;;;;;;;;;;;18.76;51.84;98836.41;4842100;29;19928;-82
2022/06/26 03:51:45;;;;;;;;;;;;;;;18.98;50.60;98837.31;4826473;29;20415;-78
2022/06/26 03:54:10;;;;;;;;;;;;;;;19.01;50.62;98839.66;4841481;29;19929;-79
2022/06/26 03:56:37;;;;;;;;;;;;;;;19.03;51.20;98840.31;4841919;29;19965;-87
2022/06/26 03:59:03;;;;;;;;;;;;;;;19.07;50.79;98848.88;4796352;29;19936;-79
2022/06/26 04:01:28;;;;;;;;;;;;;;;19.06;50.56;98850.75;4826750;29;19929;-82
2022/06/26 04:03:54;;;;;;;;;;;;;;;19.11;50.33;98845.63;4841845;29;19940;-80
2022/06/26 04:06:20;;;;;;;;;;;;;;;19.03;49.84;98853.00;4841797;29;19977;-78
2022/06/26 04:08:47;;;;;;;;;;;;;;;18.98;49.32;98852.75;4842867;29;20385;-78
2022/06/26 04:11:14;;;;;;;;;;;;;;;18.92;49.62;98851.63;4826463;29;19932;-78
2022/06/26 04:13:40;;;;;;;;;;;;;;;19.10;50.81;98854.75;4811730;29;19932;-80
2022/06/26 04:16:06;;;;;;;;;;;;;;;19.28;48.24;98861.66;4827464;29;19928;-90
2022/06/26 04:18:36;;;;;;;;;;;;;;;19.21;47.02;98855.31;4841602;29;19928;-79
2022/06/26 04:21:01;;;;;;;;;;;;;;;19.09;47.66;98838.72;4826710;29;19935;-79
2022/06/26 04:23:27;;;;;;;;;;;;;;;19.16;48.38;98859.44;4826547;29;20312;-78
2022/06/26 04:26:00;;;;;;;;;;;;;;;19.16;47.94;98854.00;4827397;29;19935;-76
2022/06/26 04:28:26;;;;;;;;;;;;;;;19.25;48.69;98856.63;4841998;29;20380;-78
2022/06/26 04:30:54;;;;;;;;;;;;;;;19.37;47.91;98863.25;4826272;29;20418;-79
2022/06/26 04:33:21;;;;;;;;;;;;;;;19.38;48.75;98860.31;4826385;29;20423;-79
2022/06/26 04:35:46;;;;;;;;;;;;;;;19.47;48.46;98860.22;4811173;29;19928;-81
2022/06/26 04:38:12;;;;;;;;;;;;;;;19.61;48.58;98862.88;4826406;29;20028;-79
2022/06/26 04:40:40;;;;;;;;;;;;;;;19.40;48.46;98871.81;4842115;29;20308;-79
2022/06/26 04:43:06;;;;;;;;;;;;;;;19.42;48.00;98869.75;4811033;29;19935;-77
2022/06/26 04:45:31;;;;;;;;;;;;;;;19.47;47.73;98874.59;4826470;29;19935;-78
2022/06/26 04:47:58;;;;;;;;;;;;;;;19.55;46.96;98884.47;4796099;29;19935;-80
2022/06/26 04:50:24;;;;;;;;;;;;;;;19.52;47.10;98872.16;4841235;29;20034;-81
2022/06/26 04:52:52;;;;;;;;;;;;;;;19.58;46.22;98878.69;4811019;29;19928;-78
2022/06/26 04:55:18;;;;;;;;;;;;;;;19.35;45.86;98889.69;4826364;29;20297;-77
2022/06/26 04:57:46;;;;;;;;;;;;;;;19.13;46.64;98876.06;4810832;29;19935;-77
2022/06/26 05:00:14;;;;;;;;;;;;;;;19.12;45.43;98877.09;4826362;29;20338;-78
2022/06/26 05:02:51;;;;;;;;;;;;;;;19.14;44.42;98866.94;4826306;29;19928;-77
2022/06/26 05:05:20;;;;;;;;;;;;;;;19.28;45.32;98870.63;4829975;29;20397;-79
2022/06/26 05:08:06;;;;;;;;;;;;;;;19.52;45.68;98876.72;4820070;29;20303;-78
2022/06/26 05:10:33;;;;;;;;;;;;;;;19.61;45.10;98868.28;4829453;29;20035;-78
2022/06/26 05:12:59;;;;;;;;;;;;;;;19.76;44.64;98859.28;4844969;29;20389;-78
2022/06/26 05:15:44;;;;;;;;;;;;;;;19.83;45.78;98861.03;4816929;29;19929;-77
2022/06/26 05:18:13;;;;;;;;;;;;;;;19.95;45.02;98861.34;4829393;29;19981;-76
2022/06/26 05:20:38;;;;;;;;;;;;;;;20.00;45.04;98864.31;4829259;29;19928;-77
2022/06/26 05:23:07;;;;;;;;;;;;;;;20.19;45.26;98857.38;4844630;29;19929;-77
2022/06/26 05:25:36;;;;;;;;;;;;;;;20.29;44.72;98865.19;4799449;29;20316;-77
2022/06/26 05:28:02;;;;;;;;;;;;;;;20.12;44.33;98876.34;4828916;29;19928;-77
2022/06/26 05:30:28;;;;;;;;;;;;;;;19.94;44.75;98867.00;4845426;29;19928;-77
2022/06/26 05:33:01;;;;;;;;;;;;;;;20.01;44.51;98855.16;4814394;29;19939;-77
2022/06/26 05:35:27;;;;;;;;;;;;;;;20.35;44.73;98854.38;4813956;29;19945;-78
2022/06/26 05:37:53;;;;;;;;;;;;;;;20.67;43.30;98862.16;4843952;29;19929;-80
2022/06/26 05:40:19;;;;;;;;;;;;;;;20.55;44.03;98870.00;4798729;29;19941;-79
2022/06/26 05:42:46;;;;;;;;;;;;;;;20.73;42.80;98867.63;4828731;29;19928;-78
2022/06/26 05:45:12;;;;;;;;;;;;;;;20.79;41.30;98879.56;4814661;29;19934;-78
2022/06/26 05:47:39;;;;;;;;;;;;;;;20.78;40.58;98853.44;4831114;29;20363;-80
2022/06/26 05:50:24;;;;;;;;;;;;;;;20.76;41.27;98850.06;4828713;29;20031;-82
2022/06/26 05:53:08;;;;;;;;;;;;;;;21.08;42.53;98864.88;4815765;29;20008;-82
2022/06/26 05:55:52;;;;;;;;;;;;;;;21.36;41.32;98862.09;4829161;29;20361;-82
2022/06/26 05:58:32;;;;;;;;;;;;;;;21.22;40.89;98872.06;4844403;29;19981;-88
2022/06/26 06:01:33;;;;;;;;;;;;;;;21.40;41.16;98870.66;4799091;29;19929;-78
2022/06/26 06:04:06;;;;;;;;;;;;;;;21.50;41.24;98865.69;4825458;29;19928;-78
2022/06/26 06:06:32;;;;;;;;;;;;;;;21.87;40.88;98874.38;4844907;29;20353;-80
2022/06/26 06:08:58;;;;;;;;;;;;;;;21.44;40.63;98880.97;4843882;29;19977;-80
2022/06/26 06:11:26;;;;;;;;;;;;;;;21.23;40.97;98884.59;4828151;29;20004;-79
2022/06/26 06:13:51;;;;;;;;;;;;;;;21.36;41.23;98883.84;4823167;29;20455;-81
2022/06/26 06:16:17;;;;;;;;;;;;;;;21.63;40.90;98871.19;4812754;29;20022;-79
2022/06/26 06:19:03;;;;;;;;;;;;;;;21.57;41.22;98872.81;4791466;29;19929;-79
2022/06/26 06:21:30;;;;;;;;;;;;;;;22.01;40.45;98884.22;4806325;29;19952;-79
2022/06/26 06:23:56;;;;;;;;;;;;;;;21.94;40.10;98892.38;4791174;29;19929;-80
2022/06/26 06:26:25;;;;;;;;;;;;;;;21.57;39.95;98899.19;4806087;29;19929;-79
2022/06/26 06:28:52;;;;;;;;;;;;;;;21.33;40.90;98881.56;4805733;29;19929;-81
2022/06/26 06:31:18;;;;;;;;;;;;;;;21.12;40.44;98871.59;4790759;29;19985;-80
2022/06/26 06:33:45;;;;;;;;;;;;;;;21.24;40.58;98869.97;4806293;29;19937;-79
2022/06/26 06:36:13;;;;;;;;;;;;;;;21.66;39.57;98878.06;4806455;29;19929;-81
2022/06/26 06:38:39;;;;;;;;;;;;;;;21.73;39.91;98873.50;4790911;29;19929;-81
2022/06/26 06:41:07;;;;;;;;;;;;;;;22.00;40.09;98864.34;4790831;29;20337;-80
2022/06/26 06:43:56;;;;;;;;;;;;;;;22.34;39.26;98865.22;4797734;29;19936;-79
2022/06/26 06:46:27;;;;;;;;;;;;;;;22.28;39.40;98866.06;4788046;30;20090;-83
2022/06/26 06:49:04;;;;;;;;;;;;;;;22.22;38.97;98856.00;4776284;29;19933;-79
2022/06/26 06:51:33;;;;;;;;;;;;;;;22.00;39.87;98867.06;4794666;29;19932;-80
2022/06/26 06:54:01;;;;;;;;;;;;;;;21.88;38.54;98876.88;4809426;29;19936;-81
2022/06/26 06:56:28;;;;;;;;;;;;;;;21.88;38.60;98859.72;4824686;29;19952;-81
2022/06/26 06:58:54;;;;;;;;;;;;;;;22.12;37.69;98853.66;4809400;29;20261;-80
2022/06/26 07:01:22;;;;;;;;;;;;;;;22.36;37.85;98857.66;4824650;29;19929;-81
2022/06/26 07:03:48;;;;;;;;;;;;;;;23.16;37.62;98854.78;4794462;29;19928;-81
2022/06/26 07:06:14;;;;;;;;;;;;;;;23.00;37.77;98854.22;4803255;29;19939;-81
2022/06/26 07:08:39;;;;;;;;;;;;;;;22.82;36.96;98855.91;4843487;29;20413;-81
2022/06/26 07:11:08;;;;;;;;;;;;;;;22.30;37.74;98853.91;4827928;29;19928;-80
2022/06/26 07:13:33;;;;;;;;;;;;;;;21.51;38.71;98892.69;4843092;29;19932;-81
2022/06/26 07:15:59;;;;;;;;;;;;;;;21.23;39.91;98865.56;4827129;29;20312;-81
2022/06/26 07:18:25;;;;;;;;;;;;;;;21.37;40.34;98866.50;4827235;29;19932;-83
2022/06/26 07:20:53;;;;;;;;;;;;;;;21.51;39.23;98856.47;4826971;29;20035;-80
2022/06/26 07:23:19;;;;;;;;;;;;;;;21.74;39.91;98850.69;4812423;29;20056;-82
2022/06/26 07:25:57;;;;;;;;;;;;;;;21.74;40.00;98837.06;4827681;29;20027;-83
2022/06/26 07:28:28;;;;;;;;;;;;;;;21.73;39.09;98846.28;4832323;29;19936;-81
2022/06/26 07:30:54;;;;;;;;;;;;;;;21.60;39.42;98846.28;4818921;29;19960;-83
2022/06/26 07:36:04;;;;;;;;;;;;;;;22.12;38.78;98841.94;4842229;29;19981;-81
2022/06/26 07:38:30;;;;;;;;;;;;;;;22.23;39.19;98844.91;4821075;29;20305;-83
2022/06/26 07:40:56;;;;;;;;;;;;;;;22.14;37.61;98869.81;4844672;29;20457;-82
2022/06/26 07:43:22;;;;;;;;;;;;;;;21.75;37.82;98880.41;4817445;29;20290;-81
2022/06/26 07:45:48;;;;;;;;;;;;;;;21.55;38.31;98858.63;4827751;29;19935;-80
2022/06/26 07:48:14;;;;;;;;;;;;;;;21.99;38.20;98861.81;4808577;29;19928;-81
2022/06/26 07:50:40;;;;;;;;;;;;;;;21.98;37.27;98871.88;4808533;29;20301;-81
2022/06/26 07:53:06;;;;;;;;;;;;;;;21.97;37.25;98863.91;4807854;29;19936;-83
2022/06/26 07:55:31;;;;;;;;;;;;;;;21.72;37.55;98852.78;4808447;29;19981;-81
2022/06/26 07:57:57;;;;;;;;;;;;;;;21.95;35.96;98894.03;4793582;29;19929;-80
2022/06/26 08:00:23;;;;;;;;;;;;;;;21.68;36.84;98889.59;4808739;29;19936;-86
2022/06/26 08:02:49;;;;;;;;;;;;;;;21.75;37.78;98849.66;4808671;29;19928;-87
2022/06/26 08:05:15;;;;;;;;;;;;;;;21.67;35.94;98877.06;4825294;29;19929;-86
2022/06/26 08:07:41;;;;;;;;;;;;;;;21.39;36.94;98883.44;4809349;29;19932;-89
2022/06/26 08:10:07;;;;;;;;;;;;;;;21.26;37.63;98878.75;4794008;29;19929;-87
2022/06/26 08:12:32;;;;;;;;;;;;;;;21.24;37.45;98893.59;4809204;29;20407;-92
2022/06/26 08:14:58;;;;;;;;;;;;;;;21.29;37.75;98866.66;4793868;29;20460;-83
2022/06/26 08:17:23;;;;;;;;;;;;;;;;;;4828773;29;19928;-86
2022/06/26 08:19:49;;;;;;;;;;;;;;;21.55;36.95;98887.66;4852425;29;19928;-82
2022/06/26 08:22:15;;;;;;;;;;;;;;;21.36;37.22;98892.00;4846114;29;19967;-87
2022/06/26 08:24:41;;;;;;;;;;;;;;;21.14;35.92;98876.81;4842973;29;19936;-85
2022/06/26 08:27:10;;;;;;;;;;;;;;;21.13;36.06;98867.81;4826668;29;19928;-83
2022/06/26 08:29:36;;;;;;;;;;;;;;;21.51;36.43;98880.97;4841872;29;19928;-84
2022/06/26 08:32:03;;;;;;;;;;;;;;;21.37;34.92;98880.09;4796025;29;19932;-82
2022/06/26 08:34:28;;;;;;;;;;;;;;;21.17;35.50;98895.44;4818408;29;19936;-83
2022/06/26 08:36:55;;;;;;;;;;;;;;;21.42;35.21;98872.16;4801312;29;19932;-85
2022/06/26 08:39:21;;;;;;;;;;;;;;;21.21;35.85;98885.84;4823617;29;20301;-84
2022/06/26 08:41:47;;;;;;;;;;;;;;;21.44;35.45;98880.97;4824621;29;20393;-83
2022/06/26 08:44:14;;;;;;;;;;;;;;;21.68;35.17;98867.84;4823100;29;19952;-86
2022/06/26 08:46:40;;;;;;;;;;;;;;;21.86;35.36;98872.69;4809767;29;20024;-80
2022/06/26 08:49:10;;;;;;;;;;;;;;;22.09;36.11;98877.75;4807807;29;19985;-85
2022/06/26 08:51:40;;;;;;;;;;;;;;;22.44;35.16;98857.44;4826039;29;19929;-85
2022/06/26 08:54:06;;;;;;;;;;;;;;;21.74;35.85;98892.34;4806510;29;19929;-80
2022/06/26 08:56:34;;;;;;;;;;;;;;;21.72;35.58;98885.44;4823886;29;20430;-85
2022/06/26 08:59:02;;;;;;;;;;;;;;;21.83;35.75;98895.69;4793279;29;19933;-83
2022/06/26 09:01:28;;;;;;;;;;;;;;;21.75;35.75;98874.13;4830948;29;20032;-79
2022/06/26 09:03:54;;;;;;;;;;;;;;;21.92;36.08;98894.44;4841729;29;20015;-86
2022/06/26 09:06:23;;;;;;;;;;;;;;;22.32;36.04;98867.31;4812125;29;20027;-85
2022/06/26 09:08:49;;;;;;;;;;;;;;;22.83;34.40;98896.59;4841382;29;19929;-85
2022/06/26 09:11:16;;;;;;;;;;;;;;;22.92;34.39;98884.44;4810699;29;19935;-85
2022/06/26 09:13:42;;;;;;;;;;;;;;;23.10;34.65;98866.56;4842308;29;20582;-80
2022/06/26 09:16:09;;;;;;;;;;;;;;;23.30;34.12;98880.94;4810846;29;19932;-82
2022/06/26 09:18:36;;;;;;;;;;;;;;;23.49;34.11;98871.00;4840798;29;20085;-82
2022/06/26 09:21:04;;;;;;;;;;;;;;;24.05;33.66;98867.53;4826238;29;19935;-84
2022/06/26 09:23:34;;;;;;;;;;;;;;;24.36;32.82;98869.38;4826124;29;19981;-84
2022/06/26 09:26:01;;;;;;;;;;;;;;;24.38;32.12;98878.19;4825463;29;20293;-83
2022/06/26 09:28:27;;;;;;;;;;;;;;;24.12;32.59;98873.78;4840801;29;20038;-81
2022/06/26 09:30:56;;;;;;;;;;;;;;;23.70;32.32;98867.16;4822986;29;19928;-82
2022/06/26 09:33:23;;;;;;;;;;;;;;;23.63;32.38;98882.69;4792224;29;19933;-84
2022/06/26 09:35:50;;;;;;;;;;;;;;;23.56;32.79;98868.25;4792500;29;20081;-83
2022/06/26 09:38:16;;;;;;;;;;;;;;;24.13;30.96;98880.06;4792255;29;19968;-83
2022/06/26 09:40:45;;;;;;;;;;;;;;;23.94;31.02;98871.81;4823804;29;20278;-82
2022/06/26 09:43:14;;;;;;;;;;;;;;;23.79;31.37;98871.28;4808648;29;19936;-83
2022/06/26 09:45:40;;;;;;;;;;;;;;;24.09;31.33;98867.94;4792553;29;19980;-82
2022/06/26 09:48:07;;;;;;;;;;;;;;;24.40;31.88;98869.78;4807464;29;20023;-83
2022/06/26 09:50:33;;;;;;;;;;;;;;;24.60;31.09;98870.47;4794471;29;20306;-81
2022/06/26 09:52:59;;;;;;;;;;;;;;;24.99;30.68;98849.22;4780416;29;19985;-82
2022/06/26 09:55:24;;;;;;;;;;;;;;;25.25;28.83;98866.41;4810268;29;20301;-82
2022/06/26 09:57:51;;;;;;;;;;;;;;;24.85;29.86;98875.88;4795876;29;20392;-83
2022/06/26 10:00:16;;;;;;;;;;;;;;;25.59;29.96;98852.06;4780574;29;20397;-82
2022/06/26 10:08:13;;;;;;;;;;;;;;;26.35;27.86;98864.19;4810458;29;20031;-82
2022/06/26 10:10:41;;;;;;;;;;;;;;;26.02;27.68;98866.63;4825362;29;20020;-81
2022/06/26 10:13:08;;;;;;;;;;;;;;;25.35;28.69;98863.97;4794912;29;20005;-82
2022/06/26 10:15:40;;;;;;;;;;;;;;;25.87;28.70;98859.69;4810139;29;19945;-82
2022/06/26 10:18:29;;;;;;;;;;;;;;;25.93;28.29;98866.13;4820118;29;20060;-81
2022/06/26 10:20:56;;;;;;;;;;;;;;;25.85;27.60;98872.78;4794459;29;19932;-81
2022/06/26 10:23:31;;;;;;;;;;;;;;;25.69;27.86;98870.69;4780078;29;19935;-82
2022/06/26 10:25:57;;;;;;;;;;;;;;;25.69;27.65;98859.72;4780051;29;20023;-82
2022/06/26 10:28:23;;;;;;;;;;;;;;;26.59;27.83;98851.38;4794681;29;19992;-81
2022/06/26 10:30:49;;;;;;;;;;;;;;;26.48;27.50;98881.50;4794600;29;20093;-81
2022/06/26 10:33:16;;;;;;;;;;;;;;;26.28;27.57;98866.19;4800343;29;19988;-82
2022/06/26 10:35:44;;;;;;;;;;;;;;;25.95;27.34;98860.41;4812474;29;20389;-81
2022/06/26 10:38:40;;;;;;;;;;;;;;;25.43;27.47;98880.91;4812766;29;19928;-81
2022/06/26 10:44:01;;;;;;;;;;;;;;;26.49;26.81;98853.03;4813063;29;19929;-80
2022/06/26 10:46:34;;;;;;;;;;;;;;;26.40;27.06;98858.84;4813129;29;19928;-81
2022/06/26 10:48:59;;;;;;;;;;;;;;;26.20;27.11;98858.34;4797747;29;20056;-82
2022/06/26 10:51:27;;;;;;;;;;;;;;;26.74;27.55;98859.13;4827701;29;20023;-82
2022/06/26 10:53:53;;;;;;;;;;;;;;;27.00;26.51;98859.66;4797369;29;19928;-81
2022/06/26 10:56:19;;;;;;;;;;;;;;;27.56;25.89;98838.88;4797480;29;20294;-80
2022/06/26 10:58:48;;;;;;;;;;;;;;;27.67;25.49;98862.72;4812356;29;19984;-79
2022/06/26 11:01:15;;;;;;;;;;;;;;;27.11;25.73;98864.31;4812273;29;19955;-80
2022/06/26 11:03:42;;;;;;;;;;;;;;;27.17;26.45;98874.34;4797087;29;20464;-80
2022/06/26 11:06:09;;;;;;;;;;;;;;;26.61;25.76;98864.84;4811569;29;19939;-81
2022/06/26 11:08:36;;;;;;;;;;;;;;;27.50;26.23;98861.84;4812001;29;19939;-82
2022/06/26 11:11:04;;;;;;;;;;;;;;;28.14;25.01;98876.25;4827555;29;19929;-84
2022/06/26 11:13:30;;;;;;;;;;;;;;;28.08;24.38;98879.97;4843628;29;20007;-83
2022/06/26 11:15:56;;;;;;;;;;;;;;;27.88;25.14;98852.16;4797374;29;19936;-79
2022/06/26 11:18:22;;;;;;;;;;;;;;;28.82;24.68;98857.00;4827280;29;20437;-78
2022/06/26 11:20:56;;;;;;;;;;;;;;;29.12;23.74;98862.94;4812163;29;19932;-79
2022/06/26 11:23:21;;;;;;;;;;;;;;;29.06;23.07;98857.63;4827465;29;19928;-77
2022/06/26 11:25:55;;;;;;;;;;;;;;;27.89;24.00;98849.16;4827175;29;19984;-79
2022/06/26 11:28:26;;;;;;;;;;;;;;;27.26;24.40;98867.38;4812013;29;19932;-82
2022/06/26 11:30:51;;;;;;;;;;;;;;;27.74;24.66;98857.94;4796454;29;19977;-84
2022/06/26 11:33:24;;;;;;;;;;;;;;;28.62;24.83;98852.00;4826945;29;19932;-82
2022/06/26 11:35:50;;;;;;;;;;;;;;;29.92;22.24;98849.56;4826463;29;19928;-80
2022/06/26 11:38:17;;;;;;;;;;;;;;;28.90;22.40;98859.31;4836138;29;20008;-80
2022/06/26 11:40:43;;;;;;;;;;;;;;;28.65;23.64;98851.50;4811971;29;20028;-81
2022/06/26 11:43:09;;;;;;;;;;;;;;;29.02;23.61;98835.28;4796783;29;19928;-82
2022/06/26 11:45:35;;;;;;;;;;;;;;;28.94;23.63;98839.28;4826909;29;19932;-82
2022/06/26 11:48:05;;;;;;;;;;;;;;;28.43;25.08;98852.28;4811565;29;19933;-82
2022/06/26 11:50:35;;;;;;;;;;;;;;;28.73;24.10;98849.16;4826703;29;19985;-82
2022/06/26 11:53:03;;;;;;;;;;;;;;;29.70;23.46;98849.59;4796574;29;20050;-82
2022/06/26 11:55:29;;;;;;;;;;;;;;;30.62;22.56;98837.47;4842768;29;19928;-82
2022/06/26 11:57:55;;;;;;;;;;;;;;;31.14;21.39;98842.22;4842940;29;19982;-81
2022/06/26 12:00:21;;;;;;;;;;;;;;;31.30;20.88;98853.31;4826646;29;19928;-81
2022/06/26 12:02:48;;;;;;;;;;;;;;;30.50;20.67;98845.09;4811174;29;19928;-80
2022/06/26 12:05:25;;;;;;;;;;;;;;;28.36;23.76;98850.75;4811395;29;20401;-82
2022/06/26 12:07:52;;;;;;;;;;;;;;;28.07;24.35;98850.84;4811406;29;19977;-81
2022/06/26 12:10:35;;;;;;;;;;;;;;;27.22;25.14;98855.22;4810316;29;19944;-80
2022/06/26 12:13:01;;;;;;;;;;;;;;;26.22;26.29;98858.13;4834973;29;20404;-80
2022/06/26 12:15:30;;;;;;;;;;;;;;;26.94;25.71;98858.72;4810974;29;19977;-80
2022/06/26 12:18:00;;;;;;;;;;;;;;;28.25;25.18;98850.59;4810975;29;19972;-80
2022/06/26 12:20:35;;;;;;;;;;;;;;;29.54;23.33;98837.56;4796925;29;19943;-81
2022/06/26 12:23:01;;;;;;;;;;;;;;;29.95;22.07;98843.53;4810934;29;19928;-80
2022/06/26 12:25:36;;;;;;;;;;;;;;;28.30;24.33;98842.44;4811036;29;20300;-79
2022/06/26 12:28:02;;;;;;;;;;;;;;;28.00;24.86;98850.16;4796793;29;19929;-80
2022/06/26 12:30:29;;;;;;;;;;;;;;;26.98;26.10;98853.59;4795850;29;19928;-82
2022/06/26 12:32:56;;;;;;;;;;;;;;;26.27;26.82;98860.97;4795872;29;19936;-82
2022/06/26 12:35:22;;;;;;;;;;;;;;;25.55;27.78;98850.03;4826101;29;19967;-82
2022/06/26 12:37:48;;;;;;;;;;;;;;;26.47;27.39;98846.94;4810952;29;20266;-82
2022/06/26 12:40:14;;;;;;;;;;;;;;;27.54;26.12;98841.06;4810068;29;20324;-81
2022/06/26 12:42:40;;;;;;;;;;;;;;;27.35;26.41;98849.47;4825770;29;19929;-82
2022/06/26 12:45:06;;;;;;;;;;;;;;;27.07;26.76;98847.47;4840997;29;20380;-82
2022/06/26 12:47:31;;;;;;;;;;;;;;;28.67;25.93;98839.19;4825805;29;19933;-80
2022/06/26 12:49:58;;;;;;;;;;;;;;;29.86;24.19;98836.81;4840854;29;19928;-81
2022/06/26 12:52:24;;;;;;;;;;;;;;;31.31;22.30;98838.44;4840639;29;20403;-82
2022/06/26 12:54:50;;;;;;;;;;;;;;;32.11;21.40;98845.25;4825490;29;19928;-82
2022/06/26 12:57:19;;;;;;;;;;;;;;;32.04;20.97;98844.69;4842201;29;20365;-81
2022/06/26 12:59:44;;;;;;;;;;;;;;;30.62;21.72;98822.88;4810541;29;20405;-82
2022/06/26 13:02:11;;;;;;;;;;;;;;;31.14;21.51;98844.13;4841232;29;19985;-81
2022/06/26 13:04:37;;;;;;;;;;;;;;;32.44;20.57;98839.50;4842215;29;20380;-82
2022/06/26 13:07:03;;;;;;;;;;;;;;;32.90;18.76;98848.53;4842585;29;20350;-82